createdAt,value
2023-02-15T00:00:09.776Z,423.38
2023-02-15T00:00:19.777Z,423.40
2023-02-15T00:00:29.774Z,423.37
2023-02-15T00:00:39.779Z,423.46
2023-02-15T00:00:49.783Z,423.39
2023-02-15T00:00:59.781Z,423.49
2023-02-15T00:01:09.786Z,423.45
2023-02-15T00:01:19.785Z,423.52
2023-02-15T00:01:29.781Z,423.54
2023-02-15T00:01:39.910Z,423.47
2023-02-15T00:01:49.797Z,423.56
2023-02-15T00:01:59.797Z,423.59
2023-02-15T00:02:09.834Z,423.57
2023-02-15T00:02:19.799Z,423.59
2023-02-15T00:02:29.789Z,423.58
2023-02-15T00:02:39.791Z,423.57
2023-02-15T00:02:49.829Z,423.59
2023-02-15T00:02:59.825Z,423.57
2023-02-15T00:03:09.862Z,423.58
2023-02-15T00:03:19.820Z,423.58
2023-02-15T00:03:29.814Z,423.60
2023-02-15T00:03:39.794Z,423.60
2023-02-15T00:03:49.806Z,423.54
2023-02-15T00:03:59.797Z,423.68
2023-02-15T00:04:09.796Z,423.69
2023-02-15T00:04:19.797Z,423.73
2023-02-15T00:04:29.803Z,423.72
2023-02-15T00:04:39.802Z,423.71
2023-02-15T00:04:49.828Z,423.69
2023-02-15T00:04:59.801Z,423.74
2023-02-15T00:05:09.809Z,423.83
2023-02-15T00:05:19.806Z,423.84
2023-02-15T00:05:29.805Z,423.77
2023-02-15T00:05:39.808Z,423.83
2023-02-15T00:05:49.808Z,423.82
2023-02-15T00:06:00.244Z,423.84
2023-02-15T00:06:09.810Z,423.82
2023-02-15T00:06:19.812Z,423.91
2023-02-15T00:06:29.828Z,423.96
2023-02-15T00:06:39.813Z,423.89
2023-02-15T00:06:49.817Z,423.98
2023-02-15T00:06:59.821Z,423.95
2023-02-15T00:07:09.817Z,423.91
2023-02-15T00:07:19.840Z,423.96
2023-02-15T00:07:29.823Z,423.99
2023-02-15T00:07:39.832Z,423.91
2023-02-15T00:07:49.850Z,423.92
2023-02-15T00:07:59.825Z,423.89
2023-02-15T00:08:09.827Z,423.86
2023-02-15T00:08:19.825Z,423.80
2023-02-15T00:08:29.832Z,423.84
2023-02-15T00:08:39.831Z,423.85
2023-02-15T00:08:49.827Z,423.83
2023-02-15T00:08:59.840Z,423.72
2023-02-15T00:09:09.845Z,423.77
2023-02-15T00:09:19.835Z,423.76
2023-02-15T00:09:29.833Z,423.66
2023-02-15T00:09:39.838Z,423.66
2023-02-15T00:09:49.861Z,423.70
2023-02-15T00:09:59.836Z,423.69
2023-02-15T00:10:09.843Z,423.59
2023-02-15T00:10:19.841Z,423.66
2023-02-15T00:10:29.839Z,423.63
2023-02-15T00:10:52.341Z,423.61
2023-02-15T00:10:52.633Z,423.58
2023-02-15T00:11:02.635Z,423.57
2023-02-15T00:11:12.637Z,423.57
2023-02-15T00:11:22.641Z,423.48
2023-02-15T00:11:32.641Z,423.52
2023-02-15T00:11:42.642Z,423.54
2023-02-15T00:11:52.650Z,423.50
2023-02-15T00:12:02.644Z,423.48
2023-02-15T00:12:12.641Z,423.45
2023-02-15T00:12:22.652Z,423.43
2023-02-15T00:12:32.629Z,423.43
2023-02-15T00:12:42.647Z,423.54
2023-02-15T00:12:52.643Z,423.51
2023-02-15T00:13:02.647Z,423.50
2023-02-15T00:13:12.651Z,423.48
2023-02-15T00:13:22.651Z,423.45
2023-02-15T00:13:32.654Z,423.46
2023-02-15T00:13:42.649Z,423.52
2023-02-15T00:13:52.638Z,423.57
2023-02-15T00:14:02.653Z,423.51
2023-02-15T00:14:12.653Z,423.55
2023-02-15T00:14:22.665Z,423.52
2023-02-15T00:14:32.652Z,423.55
2023-02-15T00:14:42.655Z,423.47
2023-02-15T00:14:52.698Z,423.57
2023-02-15T00:15:02.659Z,423.50
2023-02-15T00:15:12.660Z,423.45
2023-02-15T00:15:22.658Z,423.42
2023-02-15T00:15:32.661Z,423.47
2023-02-15T00:15:42.662Z,423.43
2023-02-15T00:15:52.648Z,423.43
2023-02-15T00:16:02.953Z,423.44
2023-02-15T00:16:12.689Z,423.51
2023-02-15T00:16:22.686Z,423.54
2023-02-15T00:16:32.752Z,423.53
2023-02-15T00:16:42.713Z,423.52
2023-02-15T00:16:52.668Z,423.51
2023-02-15T00:17:02.674Z,423.51
2023-02-15T00:17:12.682Z,423.53
2023-02-15T00:17:22.660Z,423.55
2023-02-15T00:17:32.703Z,423.54
2023-02-15T00:17:42.674Z,423.53
2023-02-15T00:17:52.677Z,423.56
2023-02-15T00:18:02.679Z,423.53
2023-02-15T00:18:12.678Z,423.49
2023-02-15T00:18:22.677Z,423.60
2023-02-15T00:18:32.677Z,423.58
2023-02-15T00:18:42.665Z,423.53
2023-02-15T00:18:52.682Z,423.59
2023-02-15T00:19:02.679Z,423.57
2023-02-15T00:19:12.683Z,423.55
2023-02-15T00:19:22.686Z,423.52
2023-02-15T00:19:32.690Z,423.51
2023-02-15T00:19:42.682Z,423.63
2023-02-15T00:19:52.685Z,423.58
2023-02-15T00:20:02.689Z,423.52
2023-02-15T00:20:12.686Z,423.58
2023-02-15T00:20:22.686Z,423.54
2023-02-15T00:20:32.697Z,423.58
2023-02-15T00:20:42.690Z,423.57
2023-02-15T00:20:52.676Z,423.58
2023-02-15T00:21:02.707Z,423.58
2023-02-15T00:21:12.692Z,423.50
2023-02-15T00:21:22.695Z,423.55
2023-02-15T00:21:32.695Z,423.47
2023-02-15T00:21:42.698Z,423.52
2023-02-15T00:21:52.715Z,423.48
2023-02-15T00:22:02.714Z,423.50
2023-02-15T00:22:12.700Z,423.55
2023-02-15T00:22:22.701Z,423.53
2023-02-15T00:22:32.703Z,423.47
2023-02-15T00:22:42.700Z,423.47
2023-02-15T00:22:52.711Z,423.45
2023-02-15T00:23:02.692Z,423.47
2023-02-15T00:23:12.705Z,423.49
2023-02-15T00:23:22.709Z,423.46
2023-02-15T00:23:32.692Z,423.45
2023-02-15T00:23:42.708Z,423.36
2023-02-15T00:23:52.709Z,423.37
2023-02-15T00:24:02.710Z,423.40
2023-02-15T00:24:12.700Z,423.42
2023-02-15T00:24:22.744Z,423.37
2023-02-15T00:24:32.722Z,423.39
2023-02-15T00:24:42.703Z,423.48
2023-02-15T00:24:52.703Z,423.45
2023-02-15T00:25:02.717Z,423.43
2023-02-15T00:25:12.718Z,423.35
2023-02-15T00:25:22.717Z,423.34
2023-02-15T00:25:32.719Z,423.33
2023-02-15T00:25:42.712Z,423.36
2023-02-15T00:25:52.724Z,423.36
2023-02-15T00:26:03.026Z,423.31
2023-02-15T00:26:12.727Z,423.34
2023-02-15T00:26:22.726Z,423.23
2023-02-15T00:26:32.729Z,423.30
2023-02-15T00:26:42.725Z,423.35
2023-02-15T00:26:52.733Z,423.35
2023-02-15T00:27:02.727Z,423.33
2023-02-15T00:27:12.728Z,423.33
2023-02-15T00:27:22.733Z,423.30
2023-02-15T00:27:32.728Z,423.35
2023-02-15T00:27:42.733Z,423.39
2023-02-15T00:27:52.734Z,423.42
2023-02-15T00:28:02.732Z,423.43
2023-02-15T00:28:12.734Z,423.45
2023-02-15T00:28:22.736Z,423.42
2023-02-15T00:28:32.736Z,423.51
2023-02-15T00:28:42.737Z,423.51
2023-02-15T00:28:52.736Z,423.48
2023-02-15T00:29:02.739Z,423.47
2023-02-15T00:29:12.757Z,423.46
2023-02-15T00:29:22.738Z,423.60
2023-02-15T00:29:32.758Z,423.57
2023-02-15T00:29:42.743Z,423.62
2023-02-15T00:29:52.783Z,423.61
2023-02-15T00:30:02.798Z,423.56
2023-02-15T00:30:12.826Z,423.55
2023-02-15T00:30:22.777Z,423.66
2023-02-15T00:30:32.776Z,423.65
2023-02-15T00:30:42.783Z,423.65
2023-02-15T00:30:52.812Z,423.67
2023-02-15T00:31:02.837Z,423.68
2023-02-15T00:31:12.820Z,423.72
2023-02-15T00:31:22.841Z,423.78
2023-02-15T00:31:32.944Z,423.72
2023-02-15T00:31:42.770Z,423.75
2023-02-15T00:31:52.912Z,423.77
2023-02-15T00:32:02.765Z,423.83
2023-02-15T00:32:12.756Z,423.80
2023-02-15T00:32:22.771Z,423.83
2023-02-15T00:32:32.757Z,423.87
2023-02-15T00:32:42.757Z,423.89
2023-02-15T00:32:52.771Z,424.01
2023-02-15T00:33:02.764Z,423.97
2023-02-15T00:33:12.761Z,424.04
2023-02-15T00:33:22.759Z,424.10
2023-02-15T00:33:32.763Z,424.07
2023-02-15T00:33:42.766Z,424.11
2023-02-15T00:33:52.763Z,424.21
2023-02-15T00:34:02.764Z,424.20
2023-02-15T00:34:12.771Z,424.28
2023-02-15T00:34:22.766Z,424.21
2023-02-15T00:34:32.771Z,424.33
2023-02-15T00:34:42.766Z,424.28
2023-02-15T00:34:52.766Z,424.30
2023-02-15T00:35:02.767Z,424.39
2023-02-15T00:35:12.771Z,424.48
2023-02-15T00:35:22.775Z,424.55
2023-02-15T00:35:32.772Z,424.50
2023-02-15T00:35:42.773Z,424.49
2023-02-15T00:35:52.776Z,424.51
2023-02-15T00:36:03.135Z,424.55
2023-02-15T00:36:12.773Z,424.64
2023-02-15T00:36:22.774Z,424.62
2023-02-15T00:36:32.788Z,424.59
2023-02-15T00:36:42.777Z,424.69
2023-02-15T00:36:52.809Z,424.74
2023-02-15T00:37:02.782Z,424.72
2023-02-15T00:37:12.780Z,424.72
2023-02-15T00:37:22.780Z,424.69
2023-02-15T00:37:32.779Z,424.75
2023-02-15T00:37:42.787Z,424.86
2023-02-15T00:37:52.770Z,424.86
2023-02-15T00:38:02.781Z,424.86
2023-02-15T00:38:12.782Z,424.84
2023-02-15T00:38:22.783Z,424.85
2023-02-15T00:38:32.786Z,424.91
2023-02-15T00:38:42.786Z,424.98
2023-02-15T00:38:52.788Z,424.93
2023-02-15T00:39:02.796Z,424.99
2023-02-15T00:39:12.791Z,424.97
2023-02-15T00:39:22.792Z,425.07
2023-02-15T00:39:32.793Z,425.01
2023-02-15T00:39:42.800Z,425.08
2023-02-15T00:39:52.812Z,425.01
2023-02-15T00:40:02.800Z,425.09
2023-02-15T00:40:12.802Z,425.11
2023-02-15T00:40:22.810Z,425.07
2023-02-15T00:40:32.802Z,425.08
2023-02-15T00:40:42.815Z,425.10
2023-02-15T00:40:52.804Z,425.23
2023-02-15T00:41:02.799Z,425.18
2023-02-15T00:41:12.811Z,425.27
2023-02-15T00:41:22.803Z,425.27
2023-02-15T00:41:32.811Z,425.24
2023-02-15T00:41:42.819Z,425.23
2023-02-15T00:41:52.809Z,425.27
2023-02-15T00:42:02.806Z,425.26
2023-02-15T00:42:12.808Z,425.32
2023-02-15T00:42:22.816Z,425.26
2023-02-15T00:42:32.807Z,425.30
2023-02-15T00:42:42.816Z,425.29
2023-02-15T00:42:52.812Z,425.29
2023-02-15T00:43:02.834Z,425.37
2023-02-15T00:43:12.818Z,425.34
2023-02-15T00:43:22.814Z,425.39
2023-02-15T00:43:32.818Z,425.32
2023-02-15T00:43:42.827Z,425.37
2023-02-15T00:43:52.817Z,425.30
2023-02-15T00:44:02.847Z,425.31
2023-02-15T00:44:12.833Z,425.36
2023-02-15T00:44:22.823Z,425.45
2023-02-15T00:44:32.823Z,425.37
2023-02-15T00:44:42.842Z,425.46
2023-02-15T00:44:52.828Z,425.50
2023-02-15T00:45:02.833Z,425.47
2023-02-15T00:45:12.832Z,425.52
2023-02-15T00:45:22.828Z,425.50
2023-02-15T00:45:32.839Z,425.47
2023-02-15T00:45:42.837Z,425.45
2023-02-15T00:45:52.839Z,425.42
2023-02-15T00:46:03.211Z,425.40
2023-02-15T00:46:12.864Z,425.46
2023-02-15T00:46:22.848Z,425.43
2023-02-15T00:46:32.836Z,425.44
2023-02-15T00:46:42.851Z,425.38
2023-02-15T00:46:52.837Z,425.36
2023-02-15T00:47:02.846Z,425.40
2023-02-15T00:47:12.845Z,425.46
2023-02-15T00:47:22.838Z,425.40
2023-02-15T00:47:32.826Z,425.40
2023-02-15T00:47:42.841Z,425.48
2023-02-15T00:47:52.844Z,425.44
2023-02-15T00:48:02.843Z,425.43
2023-02-15T00:48:12.841Z,425.50
2023-02-15T00:48:22.852Z,425.43
2023-02-15T00:48:32.854Z,425.45
2023-02-15T00:48:42.876Z,425.41
2023-02-15T00:48:52.857Z,425.43
2023-02-15T00:49:02.852Z,425.40
2023-02-15T00:49:12.855Z,425.46
2023-02-15T00:49:22.856Z,425.47
2023-02-15T00:49:32.856Z,425.53
2023-02-15T00:49:42.854Z,425.54
2023-02-15T00:49:52.854Z,425.48
2023-02-15T00:50:02.882Z,425.42
2023-02-15T00:50:12.845Z,425.40
2023-02-15T00:50:23.877Z,425.41
2023-02-15T00:50:32.859Z,425.43
2023-02-15T00:50:42.861Z,425.41
2023-02-15T00:50:52.864Z,425.45
2023-02-15T00:51:02.862Z,425.46
2023-02-15T00:51:12.849Z,425.46
2023-02-15T00:51:22.868Z,425.43
2023-02-15T00:51:32.866Z,425.37
2023-02-15T00:51:42.865Z,425.41
2023-02-15T00:51:52.870Z,425.43
2023-02-15T00:52:02.851Z,425.42
2023-02-15T00:52:12.866Z,425.47
2023-02-15T00:52:22.856Z,425.41
2023-02-15T00:52:32.859Z,425.46
2023-02-15T00:52:42.858Z,425.42
2023-02-15T00:52:52.870Z,425.46
2023-02-15T00:53:02.871Z,425.40
2023-02-15T00:53:12.872Z,425.48
2023-02-15T00:53:22.890Z,425.47
2023-02-15T00:53:32.936Z,425.51
2023-02-15T00:53:42.880Z,425.44
2023-02-15T00:53:52.878Z,425.49
2023-02-15T00:54:02.885Z,425.52
2023-02-15T00:54:12.882Z,425.51
2023-02-15T00:54:22.878Z,425.47
2023-02-15T00:54:32.882Z,425.55
2023-02-15T00:54:42.881Z,425.49
2023-02-15T00:54:52.883Z,425.47
2023-02-15T00:55:02.885Z,425.51
2023-02-15T00:55:12.890Z,425.43
2023-02-15T00:55:22.889Z,425.52
2023-02-15T00:55:32.902Z,425.59
2023-02-15T00:55:42.887Z,425.57
2023-02-15T00:55:52.888Z,425.63
2023-02-15T00:56:03.268Z,425.61
2023-02-15T00:56:12.891Z,425.64
2023-02-15T00:56:22.890Z,425.68
2023-02-15T00:56:32.897Z,425.68
2023-02-15T00:56:42.894Z,425.59
2023-02-15T00:56:52.899Z,425.69
2023-02-15T00:57:02.892Z,425.67
2023-02-15T00:57:12.909Z,425.69
2023-02-15T00:57:22.893Z,425.75
2023-02-15T00:57:32.893Z,425.73
2023-02-15T00:57:42.896Z,425.73
2023-02-15T00:57:52.896Z,425.71
2023-02-15T00:58:02.897Z,425.69
2023-02-15T00:58:12.897Z,425.73
2023-02-15T00:58:22.901Z,425.72
2023-02-15T00:58:32.899Z,425.81
2023-02-15T00:58:42.903Z,425.83
2023-02-15T00:58:52.908Z,425.79
2023-02-15T00:59:02.913Z,425.88
2023-02-15T00:59:12.904Z,425.93
2023-02-15T00:59:22.892Z,425.93
2023-02-15T00:59:32.901Z,425.97
2023-02-15T00:59:42.906Z,426.04
2023-02-15T00:59:52.906Z,426.04
2023-02-15T01:00:02.916Z,426.09
2023-02-15T01:00:12.903Z,426.09
2023-02-15T01:00:22.907Z,426.08
2023-02-15T01:00:32.928Z,426.11
2023-02-15T01:00:42.907Z,426.20
2023-02-15T01:00:52.912Z,426.19
2023-02-15T01:01:02.950Z,426.18
2023-02-15T01:01:12.972Z,426.22
2023-02-15T01:01:22.975Z,426.27
2023-02-15T01:01:32.977Z,426.26
2023-02-15T01:01:42.917Z,426.23
2023-02-15T01:01:52.915Z,426.31
2023-02-15T01:02:02.918Z,426.30
2023-02-15T01:02:12.918Z,426.32
2023-02-15T01:02:22.921Z,426.32
2023-02-15T01:02:32.920Z,426.34
2023-02-15T01:02:42.928Z,426.40
2023-02-15T01:02:52.920Z,426.36
2023-02-15T01:03:02.926Z,426.38
2023-02-15T01:03:12.920Z,426.38
2023-02-15T01:03:22.929Z,426.46
2023-02-15T01:03:32.925Z,426.45
2023-02-15T01:03:42.926Z,426.42
2023-02-15T01:03:52.926Z,426.42
2023-02-15T01:04:02.938Z,426.46
2023-02-15T01:04:12.959Z,426.53
2023-02-15T01:04:22.944Z,426.47
2023-02-15T01:04:32.989Z,426.44
2023-02-15T01:04:43.028Z,426.44
2023-02-15T01:04:52.931Z,426.49
2023-02-15T01:05:02.956Z,426.54
2023-02-15T01:05:12.932Z,426.49
2023-02-15T01:05:22.939Z,426.61
2023-02-15T01:05:32.935Z,426.61
2023-02-15T01:05:42.938Z,426.56
2023-02-15T01:05:52.962Z,426.56
2023-02-15T01:06:03.260Z,426.54
2023-02-15T01:06:12.936Z,426.58
2023-02-15T01:06:22.944Z,426.63
2023-02-15T01:06:32.940Z,426.68
2023-02-15T01:06:42.943Z,426.66
2023-02-15T01:06:52.951Z,426.72
2023-02-15T01:07:02.946Z,426.79
2023-02-15T01:07:12.943Z,426.78
2023-02-15T01:07:22.946Z,426.77
2023-02-15T01:07:32.945Z,426.78
2023-02-15T01:07:42.948Z,426.92
2023-02-15T01:07:54.465Z,426.93
2023-02-15T01:08:02.954Z,426.96
2023-02-15T01:08:12.948Z,427.01
2023-02-15T01:08:22.955Z,427.01
2023-02-15T01:08:32.948Z,427.08
2023-02-15T01:08:42.954Z,427.12
2023-02-15T01:08:52.956Z,427.14
2023-02-15T01:09:02.954Z,427.18
2023-02-15T01:09:12.955Z,427.16
2023-02-15T01:09:22.956Z,427.29
2023-02-15T01:09:32.967Z,427.34
2023-02-15T01:09:42.958Z,427.35
2023-02-15T01:09:52.960Z,427.39
2023-02-15T01:10:02.977Z,427.40
2023-02-15T01:10:12.966Z,427.39
2023-02-15T01:10:22.965Z,427.40
2023-02-15T01:10:32.965Z,427.45
2023-02-15T01:10:42.966Z,427.47
2023-02-15T01:10:52.970Z,427.46
2023-02-15T01:11:02.969Z,427.47
2023-02-15T01:11:12.973Z,427.54
2023-02-15T01:11:23.486Z,427.56
2023-02-15T01:11:32.978Z,427.57
2023-02-15T01:11:42.973Z,427.67
2023-02-15T01:11:52.980Z,427.70
2023-02-15T01:12:03.008Z,427.70
2023-02-15T01:12:12.973Z,427.63
2023-02-15T01:12:22.973Z,427.70
2023-02-15T01:12:32.974Z,427.77
2023-02-15T01:12:42.979Z,427.82
2023-02-15T01:12:52.977Z,427.82
2023-02-15T01:13:02.979Z,427.92
2023-02-15T01:13:12.984Z,427.86
2023-02-15T01:13:22.989Z,427.90
2023-02-15T01:13:32.981Z,427.96
2023-02-15T01:13:42.984Z,427.99
2023-02-15T01:13:52.994Z,428.02
2023-02-15T01:14:02.986Z,428.07
2023-02-15T01:14:12.986Z,428.07
2023-02-15T01:14:22.992Z,428.02
2023-02-15T01:14:32.990Z,428.12
2023-02-15T01:14:42.999Z,428.17
2023-02-15T01:14:52.992Z,428.13
2023-02-15T01:15:02.998Z,428.14
2023-02-15T01:15:12.992Z,428.24
2023-02-15T01:15:22.993Z,428.25
2023-02-15T01:15:33.009Z,428.20
2023-02-15T01:15:44.102Z,428.30
2023-02-15T01:15:53.020Z,428.23
2023-02-15T01:16:03.491Z,428.28
2023-02-15T01:16:13.050Z,428.30
2023-02-15T01:16:23.061Z,428.30
2023-02-15T01:16:33.009Z,428.37
2023-02-15T01:16:43.005Z,428.37
2023-02-15T01:16:53.009Z,428.47
2023-02-15T01:17:03.004Z,428.44
2023-02-15T01:17:13.010Z,428.43
2023-02-15T01:17:23.005Z,428.58
2023-02-15T01:17:33.079Z,428.52
2023-02-15T01:17:43.005Z,428.56
2023-02-15T01:17:53.007Z,428.52
2023-02-15T01:18:03.010Z,428.64
2023-02-15T01:18:13.008Z,428.58
2023-02-15T01:18:23.017Z,428.57
2023-02-15T01:18:33.016Z,428.66
2023-02-15T01:18:43.013Z,428.70
2023-02-15T01:18:53.027Z,428.61
2023-02-15T01:19:03.013Z,428.69
2023-02-15T01:19:13.013Z,428.73
2023-02-15T01:19:23.015Z,428.68
2023-02-15T01:19:33.025Z,428.71
2023-02-15T01:19:43.025Z,428.81
2023-02-15T01:19:53.021Z,428.80
2023-02-15T01:20:03.041Z,428.76
2023-02-15T01:20:13.029Z,428.84
2023-02-15T01:20:23.024Z,428.84
2023-02-15T01:20:33.010Z,428.84
2023-02-15T01:20:43.028Z,428.80
2023-02-15T01:20:53.026Z,428.88
2023-02-15T01:21:03.031Z,428.91
2023-02-15T01:21:13.026Z,428.90
2023-02-15T01:21:23.031Z,428.94
2023-02-15T01:21:33.038Z,428.92
2023-02-15T01:21:43.028Z,428.95
2023-02-15T01:21:53.028Z,428.96
2023-02-15T01:22:03.034Z,429.05
2023-02-15T01:22:13.036Z,429.09
2023-02-15T01:22:23.029Z,429.11
2023-02-15T01:22:33.032Z,429.10
2023-02-15T01:22:43.041Z,429.08
2023-02-15T01:22:53.041Z,429.07
2023-02-15T01:23:03.069Z,429.10
2023-02-15T01:23:13.050Z,429.20
2023-02-15T01:23:23.044Z,429.21
2023-02-15T01:23:33.045Z,429.17
2023-02-15T01:23:43.056Z,429.17
2023-02-15T01:23:53.043Z,429.21
2023-02-15T01:24:03.047Z,429.21
2023-02-15T01:24:13.043Z,429.19
2023-02-15T01:24:23.041Z,429.15
2023-02-15T01:24:33.043Z,429.20
2023-02-15T01:24:43.044Z,429.22
2023-02-15T01:24:53.047Z,429.23
2023-02-15T01:25:03.058Z,429.17
2023-02-15T01:25:13.046Z,429.16
2023-02-15T01:25:23.046Z,429.15
2023-02-15T01:25:33.052Z,429.27
2023-02-15T01:25:43.056Z,429.30
2023-02-15T01:25:53.051Z,429.23
2023-02-15T01:26:03.538Z,429.33
2023-02-15T01:26:13.050Z,429.36
2023-02-15T01:26:23.050Z,429.35
2023-02-15T01:26:33.074Z,429.41
2023-02-15T01:26:43.062Z,429.45
2023-02-15T01:26:53.057Z,429.37
2023-02-15T01:27:03.057Z,429.40
2023-02-15T01:27:13.062Z,429.50
2023-02-15T01:27:23.059Z,429.53
2023-02-15T01:27:33.059Z,429.51
2023-02-15T01:27:43.060Z,429.58
2023-02-15T01:27:53.059Z,429.65
2023-02-15T01:28:03.077Z,429.66
2023-02-15T01:28:13.073Z,429.67
2023-02-15T01:28:23.064Z,429.65
2023-02-15T01:28:33.067Z,429.66
2023-02-15T01:28:43.084Z,429.73
2023-02-15T01:28:53.069Z,429.79
2023-02-15T01:29:03.072Z,429.72
2023-02-15T01:29:13.070Z,429.71
2023-02-15T01:29:23.072Z,429.80
2023-02-15T01:29:33.074Z,429.78
2023-02-15T01:29:43.078Z,429.80
2023-02-15T01:29:53.095Z,429.88
2023-02-15T01:30:03.117Z,429.91
2023-02-15T01:30:13.092Z,429.91
2023-02-15T01:30:23.098Z,429.87
2023-02-15T01:30:33.081Z,429.89
2023-02-15T01:30:43.211Z,429.97
2023-02-15T01:30:53.194Z,429.92
2023-02-15T01:31:03.108Z,429.96
2023-02-15T01:31:13.214Z,430.00
2023-02-15T01:31:23.158Z,429.99
2023-02-15T01:31:33.196Z,430.00
2023-02-15T01:31:43.278Z,430.01
2023-02-15T01:31:53.215Z,430.09
2023-02-15T01:32:03.199Z,430.09
2023-02-15T01:32:13.138Z,430.02
2023-02-15T01:32:23.087Z,430.08
2023-02-15T01:32:33.121Z,430.02
2023-02-15T01:32:43.089Z,430.06
2023-02-15T01:32:53.090Z,430.08
2023-02-15T01:33:03.092Z,430.07
2023-02-15T01:33:13.091Z,430.08
2023-02-15T01:33:23.096Z,430.15
2023-02-15T01:33:33.095Z,430.12
2023-02-15T01:33:43.098Z,430.12
2023-02-15T01:33:53.093Z,430.10
2023-02-15T01:34:03.096Z,430.19
2023-02-15T01:34:13.095Z,430.18
2023-02-15T01:34:23.100Z,430.11
2023-02-15T01:34:33.093Z,430.08
2023-02-15T01:34:43.095Z,430.16
2023-02-15T01:34:53.097Z,430.16
2023-02-15T01:35:03.134Z,430.14
2023-02-15T01:35:13.101Z,430.11
2023-02-15T01:35:23.098Z,430.17
2023-02-15T01:35:33.101Z,430.21
2023-02-15T01:35:43.099Z,430.21
2023-02-15T01:35:53.107Z,430.15
2023-02-15T01:36:03.495Z,430.18
2023-02-15T01:36:13.103Z,430.18
2023-02-15T01:36:23.115Z,430.12
2023-02-15T01:36:33.109Z,430.13
2023-02-15T01:36:43.107Z,430.16
2023-02-15T01:36:53.114Z,430.08
2023-02-15T01:37:03.098Z,430.12
2023-02-15T01:37:13.110Z,430.13
2023-02-15T01:37:23.113Z,430.18
2023-02-15T01:37:33.114Z,430.13
2023-02-15T01:37:43.119Z,430.14
2023-02-15T01:37:53.103Z,430.14
2023-02-15T01:38:03.117Z,430.17
2023-02-15T01:38:13.108Z,430.18
2023-02-15T01:38:23.127Z,430.14
2023-02-15T01:38:33.140Z,430.16
2023-02-15T01:38:43.133Z,430.20
2023-02-15T01:38:53.123Z,430.28
2023-02-15T01:39:03.128Z,430.27
2023-02-15T01:39:13.127Z,430.27
2023-02-15T01:39:23.125Z,430.29
2023-02-15T01:39:33.126Z,430.28
2023-02-15T01:39:43.129Z,430.23
2023-02-15T01:39:53.125Z,430.31
2023-02-15T01:40:03.141Z,430.25
2023-02-15T01:40:13.139Z,430.24
2023-02-15T01:40:23.139Z,430.32
2023-02-15T01:40:33.116Z,430.31
2023-02-15T01:40:43.132Z,430.26
2023-02-15T01:40:53.138Z,430.24
2023-02-15T01:41:03.142Z,430.30
2023-02-15T01:41:13.134Z,430.29
2023-02-15T01:41:23.144Z,430.24
2023-02-15T01:41:33.155Z,430.28
2023-02-15T01:41:43.136Z,430.33
2023-02-15T01:41:53.147Z,430.27
2023-02-15T01:42:03.153Z,430.32
2023-02-15T01:42:13.139Z,430.36
2023-02-15T01:42:23.148Z,430.27
2023-02-15T01:42:33.140Z,430.35
2023-02-15T01:42:43.139Z,430.38
2023-02-15T01:42:53.138Z,430.33
2023-02-15T01:43:03.147Z,430.40
2023-02-15T01:43:13.146Z,430.42
2023-02-15T01:43:23.132Z,430.42
2023-02-15T01:43:33.147Z,430.38
2023-02-15T01:43:43.166Z,430.43
2023-02-15T01:43:53.148Z,430.37
2023-02-15T01:44:03.144Z,430.36
2023-02-15T01:44:13.148Z,430.45
2023-02-15T01:44:23.150Z,430.44
2023-02-15T01:44:33.152Z,430.48
2023-02-15T01:44:43.151Z,430.48
2023-02-15T01:44:53.154Z,430.42
2023-02-15T01:45:03.166Z,430.49
2023-02-15T01:45:13.154Z,430.43
2023-02-15T01:45:23.167Z,430.46
2023-02-15T01:45:33.160Z,430.54
2023-02-15T01:45:43.157Z,430.55
2023-02-15T01:45:53.172Z,430.58
2023-02-15T01:46:03.506Z,430.49
2023-02-15T01:46:13.208Z,430.60
2023-02-15T01:46:23.190Z,430.59
2023-02-15T01:46:33.191Z,430.57
2023-02-15T01:46:43.164Z,430.61
2023-02-15T01:46:53.163Z,430.58
2023-02-15T01:47:03.163Z,430.65
2023-02-15T01:47:13.168Z,430.69
2023-02-15T01:47:23.170Z,430.71
2023-02-15T01:47:33.171Z,430.67
2023-02-15T01:47:43.167Z,430.70
2023-02-15T01:47:53.170Z,430.71
2023-02-15T01:48:03.216Z,430.73
2023-02-15T01:48:13.180Z,430.69
2023-02-15T01:48:23.177Z,430.79
2023-02-15T01:48:33.174Z,430.78
2023-02-15T01:48:43.161Z,430.69
2023-02-15T01:48:53.180Z,430.69
2023-02-15T01:49:03.177Z,430.75
2023-02-15T01:49:13.180Z,430.80
2023-02-15T01:49:23.180Z,430.71
2023-02-15T01:49:33.179Z,430.76
2023-02-15T01:49:43.181Z,430.75
2023-02-15T01:49:53.187Z,430.77
2023-02-15T01:50:03.194Z,430.75
2023-02-15T01:50:13.191Z,430.72
2023-02-15T01:50:23.182Z,430.77
2023-02-15T01:50:33.181Z,430.79
2023-02-15T01:50:43.179Z,430.79
2023-02-15T01:50:53.184Z,430.70
2023-02-15T01:51:03.563Z,430.79
2023-02-15T01:51:13.185Z,430.72
2023-02-15T01:51:23.186Z,430.81
2023-02-15T01:51:33.189Z,430.77
2023-02-15T01:51:43.188Z,430.83
2023-02-15T01:51:53.190Z,430.87
2023-02-15T01:52:03.188Z,430.83
2023-02-15T01:52:13.188Z,430.86
2023-02-15T01:52:23.187Z,430.90
2023-02-15T01:52:33.186Z,430.95
2023-02-15T01:52:43.188Z,430.99
2023-02-15T01:52:53.192Z,430.92
2023-02-15T01:53:03.190Z,431.01
2023-02-15T01:53:13.190Z,430.96
2023-02-15T01:53:23.193Z,430.99
2023-02-15T01:53:33.201Z,431.04
2023-02-15T01:53:43.194Z,431.09
2023-02-15T01:53:53.276Z,431.04
2023-02-15T01:54:03.199Z,431.09
2023-02-15T01:54:13.197Z,431.15
2023-02-15T01:54:23.201Z,431.10
2023-02-15T01:54:33.198Z,431.10
2023-02-15T01:54:43.198Z,431.20
2023-02-15T01:54:53.199Z,431.22
2023-02-15T01:55:03.253Z,431.15
2023-02-15T01:55:13.203Z,431.17
2023-02-15T01:55:23.205Z,431.26
2023-02-15T01:55:33.209Z,431.25
2023-02-15T01:55:43.204Z,431.23
2023-02-15T01:55:53.197Z,431.20
2023-02-15T01:56:03.615Z,431.23
2023-02-15T01:56:13.208Z,431.23
2023-02-15T01:56:23.210Z,431.22
2023-02-15T01:56:33.209Z,431.27
2023-02-15T01:56:43.221Z,431.32
2023-02-15T01:56:53.211Z,431.27
2023-02-15T01:57:03.210Z,431.36
2023-02-15T01:57:13.213Z,431.31
2023-02-15T01:57:23.218Z,431.31
2023-02-15T01:57:33.222Z,431.41
2023-02-15T01:57:43.214Z,431.47
2023-02-15T01:57:53.214Z,431.38
2023-02-15T01:58:03.216Z,431.39
2023-02-15T01:58:13.217Z,431.49
2023-02-15T01:58:23.218Z,431.49
2023-02-15T01:58:33.222Z,431.52
2023-02-15T01:58:43.220Z,431.53
2023-02-15T01:58:53.220Z,431.56
2023-02-15T01:59:03.220Z,431.53
2023-02-15T01:59:13.223Z,431.52
2023-02-15T01:59:23.223Z,431.63
2023-02-15T01:59:33.234Z,431.58
2023-02-15T01:59:43.227Z,431.65
2023-02-15T01:59:53.227Z,431.68
2023-02-15T02:00:03.251Z,431.64
2023-02-15T02:00:13.226Z,431.66
2023-02-15T02:00:23.231Z,431.61
2023-02-15T02:00:33.232Z,431.66
2023-02-15T02:00:43.231Z,431.72
2023-02-15T02:00:53.246Z,431.73
2023-02-15T02:01:03.235Z,431.75
2023-02-15T02:01:13.268Z,431.79
2023-02-15T02:01:23.272Z,431.82
2023-02-15T02:01:33.271Z,431.82
2023-02-15T02:01:43.315Z,431.82
2023-02-15T02:01:53.294Z,431.81
2023-02-15T02:02:03.251Z,431.86
2023-02-15T02:02:13.268Z,431.84
2023-02-15T02:02:23.268Z,431.84
2023-02-15T02:02:33.278Z,431.91
2023-02-15T02:02:43.344Z,431.90
2023-02-15T02:02:53.302Z,431.97
2023-02-15T02:03:03.297Z,431.87
2023-02-15T02:03:13.247Z,431.86
2023-02-15T02:03:23.249Z,431.86
2023-02-15T02:03:33.279Z,431.85
2023-02-15T02:03:43.249Z,431.95
2023-02-15T02:03:53.259Z,431.93
2023-02-15T02:04:03.274Z,431.89
2023-02-15T02:04:13.249Z,431.94
2023-02-15T02:04:23.240Z,431.90
2023-02-15T02:04:33.252Z,431.99
2023-02-15T02:04:43.254Z,431.92
2023-02-15T02:04:53.253Z,431.89